sensor_id;sensor_type;location;lat;lon;timestamp;pressure;altitude;pressure_sealevel;temperature;humidity
26697;BME280;14312;52.614;13.496;2023-07-31T00:00:03;100441.56;;;18.77;64.47
26697;BME280;14312;52.614;13.496;2023-07-31T00:02:51;100439.94;;;18.76;64.71
26697;BME280;14312;52.614;13.496;2023-07-31T00:05:37;100442.16;;;18.74;64.65
26697;BME280;14312;52.614;13.496;2023-07-31T00:08:23;100435.75;;;18.70;64.57
26697;BME280;14312;52.614;13.496;2023-07-31T00:11:09;100430.16;;;18.66;64.21
26697;BME280;14312;52.614;13.496;2023-07-31T00:13:55;100429.66;;;18.64;64.53
26697;BME280;14312;52.614;13.496;2023-07-31T00:16:41;100436.94;;;18.64;64.38
26697;BME280;14312;52.614;13.496;2023-07-31T00:19:27;100429.47;;;18.61;64.53
26697;BME280;14312;52.614;13.496;2023-07-31T00:22:13;100420.56;;;18.60;64.63
26697;BME280;14312;52.614;13.496;2023-07-31T00:24:59;100414.94;;;18.57;64.76
26697;BME280;14312;52.614;13.496;2023-07-31T00:27:45;100424.94;;;18.56;64.48
26697;BME280;14312;52.614;13.496;2023-07-31T00:30:31;100421.22;;;18.52;64.64
26697;BME280;14312;52.614;13.496;2023-07-31T00:33:17;100423.09;;;18.52;65.03
26697;BME280;14312;52.614;13.496;2023-07-31T00:36:03;100411.00;;;18.49;65.00
26697;BME280;14312;52.614;13.496;2023-07-31T00:38:49;100409.72;;;18.47;64.97
26697;BME280;14312;52.614;13.496;2023-07-31T00:41:35;100418.91;;;18.46;64.72
26697;BME280;14312;52.614;13.496;2023-07-31T00:44:21;100408.69;;;18.43;65.00
26697;BME280;14312;52.614;13.496;2023-07-31T00:47:07;100409.78;;;18.42;64.79
26697;BME280;14312;52.614;13.496;2023-07-31T00:49:53;100403.91;;;18.39;65.04
26697;BME280;14312;52.614;13.496;2023-07-31T00:52:40;100410.88;;;18.40;64.84
26697;BME280;14312;52.614;13.496;2023-07-31T00:55:26;100403.91;;;18.39;65.01
26697;BME280;14312;52.614;13.496;2023-07-31T00:58:12;100406.00;;;18.43;64.77
26697;BME280;14312;52.614;13.496;2023-07-31T01:00:58;100389.81;;;18.43;64.90
26697;BME280;14312;52.614;13.496;2023-07-31T01:03:44;100390.31;;;18.45;64.91
26697;BME280;14312;52.614;13.496;2023-07-31T01:06:40;100394.00;;;18.49;65.20
26697;BME280;14312;52.614;13.496;2023-07-31T01:12:34;100389.13;;;18.51;64.87
26697;BME280;14312;52.614;13.496;2023-07-31T01:15:21;100390.72;;;18.52;64.79
26697;BME280;14312;52.614;13.496;2023-07-31T01:18:07;100388.53;;;18.54;65.21
26697;BME280;14312;52.614;13.496;2023-07-31T01:21:00;100382.56;;;18.57;65.43
26697;BME280;14312;52.614;13.496;2023-07-31T01:27:12;100374.97;;;18.59;65.41
26697;BME280;14312;52.614;13.496;2023-07-31T01:30:10;100377.38;;;18.60;65.60
26697;BME280;14312;52.614;13.496;2023-07-31T01:33:00;100388.16;;;18.60;65.60
26697;BME280;14312;52.614;13.496;2023-07-31T01:35:49;100388.97;;;18.61;65.53
26697;BME280;14312;52.614;13.496;2023-07-31T01:38:36;100386.28;;;18.61;65.79
26697;BME280;14312;52.614;13.496;2023-07-31T01:41:21;100387.25;;;18.65;65.71
26697;BME280;14312;52.614;13.496;2023-07-31T01:44:07;100381.56;;;18.66;65.70
26697;BME280;14312;52.614;13.496;2023-07-31T01:46:53;100389.38;;;18.68;66.32
26697;BME280;14312;52.614;13.496;2023-07-31T01:49:39;100385.53;;;18.69;65.86
26697;BME280;14312;52.614;13.496;2023-07-31T01:52:25;100383.34;;;18.71;65.97
26697;BME280;14312;52.614;13.496;2023-07-31T01:55:11;100381.16;;;18.73;66.00
26697;BME280;14312;52.614;13.496;2023-07-31T01:57:57;100383.88;;;18.73;66.07
26697;BME280;14312;52.614;13.496;2023-07-31T02:00:43;100379.56;;;18.72;65.73
26697;BME280;14312;52.614;13.496;2023-07-31T02:03:29;100380.38;;;18.72;65.75
26697;BME280;14312;52.614;13.496;2023-07-31T02:06:14;100368.25;;;18.70;65.79
26697;BME280;14312;52.614;13.496;2023-07-31T02:09:00;100370.38;;;18.73;65.91
26697;BME280;14312;52.614;13.496;2023-07-31T02:11:46;100371.47;;;18.72;65.85
26697;BME280;14312;52.614;13.496;2023-07-31T02:14:32;100371.16;;;18.73;65.75
26697;BME280;14312;52.614;13.496;2023-07-31T02:17:18;100365.78;;;18.73;65.94
26697;BME280;14312;52.614;13.496;2023-07-31T02:20:05;100358.94;;;18.76;65.79
26697;BME280;14312;52.614;13.496;2023-07-31T02:22:51;100356.25;;;18.76;66.08
26697;BME280;14312;52.614;13.496;2023-07-31T02:25:37;100356.75;;;18.78;65.99
26697;BME280;14312;52.614;13.496;2023-07-31T02:28:23;100356.16;;;18.81;65.98
26697;BME280;14312;52.614;13.496;2023-07-31T02:31:09;100348.56;;;18.83;66.28
26697;BME280;14312;52.614;13.496;2023-07-31T02:33:55;100351.75;;;18.85;66.03
26697;BME280;14312;52.614;13.496;2023-07-31T02:36:41;100346.88;;;18.87;66.36
26697;BME280;14312;52.614;13.496;2023-07-31T02:39:26;100341.97;;;18.89;66.14
26697;BME280;14312;52.614;13.496;2023-07-31T02:42:13;100346.75;;;18.92;66.01
26697;BME280;14312;52.614;13.496;2023-07-31T02:44:59;100346.44;;;18.94;65.85
26697;BME280;14312;52.614;13.496;2023-07-31T02:47:45;100343.16;;;18.97;66.12
26697;BME280;14312;52.614;13.496;2023-07-31T02:50:31;100353.97;;;18.97;66.22
26697;BME280;14312;52.614;13.496;2023-07-31T02:53:17;100347.75;;;18.96;66.24
26697;BME280;14312;52.614;13.496;2023-07-31T02:56:04;100342.34;;;18.96;66.01
26697;BME280;14312;52.614;13.496;2023-07-31T02:58:49;100338.06;;;18.95;66.31
26697;BME280;14312;52.614;13.496;2023-07-31T03:01:35;100336.97;;;18.96;66.56
26697;BME280;14312;52.614;13.496;2023-07-31T03:04:21;100338.53;;;18.97;66.39
26697;BME280;14312;52.614;13.496;2023-07-31T03:07:07;100342.84;;;18.98;66.37
26697;BME280;14312;52.614;13.496;2023-07-31T03:09:53;100338.75;;;19.01;66.61
26697;BME280;14312;52.614;13.496;2023-07-31T03:12:40;100335.75;;;19.02;66.63
26697;BME280;14312;52.614;13.496;2023-07-31T03:15:26;100331.16;;;19.03;66.69
26697;BME280;14312;52.614;13.496;2023-07-31T03:18:12;100329.72;;;19.05;66.36
26697;BME280;14312;52.614;13.496;2023-07-31T03:20:58;100336.72;;;19.06;66.28
26697;BME280;14312;52.614;13.496;2023-07-31T03:23:44;100324.81;;;19.07;66.42
26697;BME280;14312;52.614;13.496;2023-07-31T03:26:31;100326.94;;;19.10;66.83
26697;BME280;14312;52.614;13.496;2023-07-31T03:29:17;100320.72;;;19.10;66.61
26697;BME280;14312;52.614;13.496;2023-07-31T03:32:03;100316.91;;;19.11;66.32
26697;BME280;14312;52.614;13.496;2023-07-31T03:34:49;100318.50;;;19.12;66.17
26697;BME280;14312;52.614;13.496;2023-07-31T03:37:35;100319.28;;;19.12;66.15
26697;BME280;14312;52.614;13.496;2023-07-31T03:40:21;100317.69;;;19.11;66.54
26697;BME280;14312;52.614;13.496;2023-07-31T03:43:07;100314.69;;;19.13;66.88
26697;BME280;14312;52.614;13.496;2023-07-31T03:45:53;100311.19;;;19.12;66.80
26697;BME280;14312;52.614;13.496;2023-07-31T03:48:39;100307.69;;;19.12;67.00
26697;BME280;14312;52.614;13.496;2023-07-31T03:51:25;100292.41;;;19.07;67.00
26697;BME280;14312;52.614;13.496;2023-07-31T03:54:11;100284.59;;;19.06;66.99
26697;BME280;14312;52.614;13.496;2023-07-31T03:56:59;100295.69;;;19.04;67.23
26697;BME280;14312;52.614;13.496;2023-07-31T03:59:44;100294.72;;;19.00;67.32
26697;BME280;14312;52.614;13.496;2023-07-31T04:02:30;100294.72;;;19.00;67.48
26697;BME280;14312;52.614;13.496;2023-07-31T04:05:16;100292.63;;;18.97;67.88
26697;BME280;14312;52.614;13.496;2023-07-31T04:08:02;100285.16;;;18.94;67.58
26697;BME280;14312;52.614;13.496;2023-07-31T04:10:48;100286.75;;;18.95;67.95
26697;BME280;14312;52.614;13.496;2023-07-31T04:13:34;100271.63;;;18.94;67.98
26697;BME280;14312;52.614;13.496;2023-07-31T04:16:20;100273.72;;;18.97;68.74
26697;BME280;14312;52.614;13.496;2023-07-31T04:19:06;100270.53;;;18.95;68.17
26697;BME280;14312;52.614;13.496;2023-07-31T04:21:52;100268.94;;;18.94;68.38
26697;BME280;14312;52.614;13.496;2023-07-31T04:24:38;100275.13;;;18.95;68.52
26697;BME280;14312;52.614;13.496;2023-07-31T04:27:24;100265.63;;;18.97;68.86
26697;BME280;14312;52.614;13.496;2023-07-31T04:30:10;100272.94;;;18.97;68.70
26697;BME280;14312;52.614;13.496;2023-07-31T04:32:56;100269.91;;;18.98;68.89
26697;BME280;14312;52.614;13.496;2023-07-31T04:35:50;100266.13;;;18.99;68.75
26697;BME280;14312;52.614;13.496;2023-07-31T04:38:37;100267.72;;;19.00;69.08
26697;BME280;14312;52.614;13.496;2023-07-31T04:41:23;100273.13;;;19.00;68.79
26697;BME280;14312;52.614;13.496;2023-07-31T04:44:10;100265.53;;;19.02;69.13
26697;BME280;14312;52.614;13.496;2023-07-31T04:46:57;100264.88;;;19.05;69.09
26697;BME280;14312;52.614;13.496;2023-07-31T04:49:42;100260.50;;;19.09;69.00
26697;BME280;14312;52.614;13.496;2023-07-31T04:52:28;100262.09;;;19.10;69.27
26697;BME280;14312;52.614;13.496;2023-07-31T04:55:14;100262.91;;;19.11;69.10
26697;BME280;14312;52.614;13.496;2023-07-31T04:58:00;100257.16;;;19.12;69.13
26697;BME280;14312;52.614;13.496;2023-07-31T05:00:46;100265.28;;;19.12;69.09
26697;BME280;14312;52.614;13.496;2023-07-31T05:03:32;100263.66;;;19.11;69.08
26697;BME280;14312;52.614;13.496;2023-07-31T05:06:18;100262.91;;;19.11;69.00
26697;BME280;14312;52.614;13.496;2023-07-31T05:09:06;100265.28;;;19.12;68.93
26697;BME280;14312;52.614;13.496;2023-07-31T05:11:52;100257.66;;;19.14;69.01
26697;BME280;14312;52.614;13.496;2023-07-31T05:14:38;100258.16;;;19.16;69.18
26697;BME280;14312;52.614;13.496;2023-07-31T05:17:24;100260.25;;;19.20;69.16
26697;BME280;14312;52.614;13.496;2023-07-31T05:20:10;100262.66;;;19.21;68.88
26697;BME280;14312;52.614;13.496;2023-07-31T05:22:56;100263.94;;;19.24;69.16
26697;BME280;14312;52.614;13.496;2023-07-31T05:25:42;100258.25;;;19.25;69.25
26697;BME280;14312;52.614;13.496;2023-07-31T05:28:28;100255.22;;;19.27;69.06
26697;BME280;14312;52.614;13.496;2023-07-31T05:31:14;100258.91;;;19.31;69.06
26697;BME280;14312;52.614;13.496;2023-07-31T05:34:00;100251.78;;;19.35;69.22
26697;BME280;14312;52.614;13.496;2023-07-31T05:36:46;100256.06;;;19.36;69.13
26697;BME280;14312;52.614;13.496;2023-07-31T05:39:32;100254.34;;;19.40;69.20
26697;BME280;14312;52.614;13.496;2023-07-31T05:42:17;100242.31;;;19.46;69.20
26697;BME280;14312;52.614;13.496;2023-07-31T05:45:05;100245.44;;;19.53;69.23
26697;BME280;14312;52.614;13.496;2023-07-31T05:47:51;100240.03;;;19.53;69.14
26697;BME280;14312;52.614;13.496;2023-07-31T05:50:37;100243.88;;;19.61;69.17
26697;BME280;14312;52.614;13.496;2023-07-31T05:53:25;100239.25;;;19.61;69.26
26697;BME280;14312;52.614;13.496;2023-07-31T05:56:11;100244.03;;;19.64;69.28
26697;BME280;14312;52.614;13.496;2023-07-31T05:58:57;100236.44;;;19.66;69.16
26697;BME280;14312;52.614;13.496;2023-07-31T06:01:43;100241.19;;;19.69;69.35
26697;BME280;14312;52.614;13.496;2023-07-31T06:04:29;100236.44;;;19.66;69.13
26697;BME280;14312;52.614;13.496;2023-07-31T06:07:15;100241.53;;;19.68;69.01
26697;BME280;14312;52.614;13.496;2023-07-31T06:10:01;100241.84;;;19.66;69.11
26697;BME280;14312;52.614;13.496;2023-07-31T06:12:50;100234.84;;;19.65;69.05
26697;BME280;14312;52.614;13.496;2023-07-31T06:15:36;100242.81;;;19.70;69.20
26697;BME280;14312;52.614;13.496;2023-07-31T06:18:22;100240.25;;;19.65;69.32
26697;BME280;14312;52.614;13.496;2023-07-31T06:21:09;100237.69;;;19.69;69.33
26697;BME280;14312;52.614;13.496;2023-07-31T06:23:55;100237.41;;;19.70;69.21
26697;BME280;14312;52.614;13.496;2023-07-31T06:26:41;100238.69;;;19.73;69.49
26697;BME280;14312;52.614;13.496;2023-07-31T06:29:27;100240.16;;;19.79;69.49
26697;BME280;14312;52.614;13.496;2023-07-31T06:32:13;100240.31;;;19.82;69.43
26697;BME280;14312;52.614;13.496;2023-07-31T06:34:59;100244.31;;;19.85;69.58
26697;BME280;14312;52.614;13.496;2023-07-31T06:37:45;100237.50;;;19.87;69.60
26697;BME280;14312;52.614;13.496;2023-07-31T06:40:31;100232.56;;;19.89;69.63
26697;BME280;14312;52.614;13.496;2023-07-31T06:43:17;100225.44;;;19.93;69.58
26697;BME280;14312;52.614;13.496;2023-07-31T06:46:06;100235.31;;;19.98;69.85
26697;BME280;14312;52.614;13.496;2023-07-31T06:48:52;100233.25;;;20.04;69.61
26697;BME280;14312;52.614;13.496;2023-07-31T06:51:38;100235.34;;;20.07;69.46
26697;BME280;14312;52.614;13.496;2023-07-31T06:54:24;100228.19;;;20.11;69.86
26697;BME280;14312;52.614;13.496;2023-07-31T06:57:10;100217.25;;;20.16;69.58
26697;BME280;14312;52.614;13.496;2023-07-31T06:59:56;100227.41;;;20.19;69.69
26697;BME280;14312;52.614;13.496;2023-07-31T07:02:42;100216.94;;;20.17;69.42
26697;BME280;14312;52.614;13.496;2023-07-31T07:05:28;100219.78;;;20.21;69.33
26697;BME280;14312;52.614;13.496;2023-07-31T07:08:14;100222.19;;;20.22;69.70
26697;BME280;14312;52.614;13.496;2023-07-31T07:11:00;100218.19;;;20.20;69.42
26697;BME280;14312;52.614;13.496;2023-07-31T07:13:46;100217.88;;;20.21;69.36
26697;BME280;14312;52.614;13.496;2023-07-31T07:16:32;100221.38;;;20.22;69.42
26697;BME280;14312;52.614;13.496;2023-07-31T07:19:18;100230.00;;;20.24;69.18
26697;BME280;14312;52.614;13.496;2023-07-31T07:22:04;100225.53;;;20.28;69.01
26697;BME280;14312;52.614;13.496;2023-07-31T07:24:50;100223.78;;;20.23;69.02
26697;BME280;14312;52.614;13.496;2023-07-31T07:27:36;100224.59;;;20.24;68.97
26697;BME280;14312;52.614;13.496;2023-07-31T07:30:22;100224.59;;;20.24;69.27
26697;BME280;14312;52.614;13.496;2023-07-31T07:33:10;100224.59;;;20.24;69.09
26697;BME280;14312;52.614;13.496;2023-07-31T07:36:00;100224.75;;;20.27;69.34
26697;BME280;14312;52.614;13.496;2023-07-31T07:38:46;100222.84;;;20.28;69.21
26697;BME280;14312;52.614;13.496;2023-07-31T07:41:32;100217.13;;;20.29;69.24
26697;BME280;14312;52.614;13.496;2023-07-31T07:44:18;100214.09;;;20.31;69.12
26697;BME280;14312;52.614;13.496;2023-07-31T07:47:04;100211.28;;;20.36;69.27
26697;BME280;14312;52.614;13.496;2023-07-31T07:49:51;100209.06;;;20.38;69.17
26697;BME280;14312;52.614;13.496;2023-07-31T07:52:37;100220.84;;;20.42;68.98
26697;BME280;14312;52.614;13.496;2023-07-31T07:55:23;100207.00;;;20.44;68.75
26697;BME280;14312;52.614;13.496;2023-07-31T07:58:09;100210.94;;;20.46;69.01
26697;BME280;14312;52.614;13.496;2023-07-31T08:00:55;100202.53;;;20.48;69.19
26697;BME280;14312;52.614;13.496;2023-07-31T08:03:50;100209.56;;;20.57;69.16
26697;BME280;14312;52.614;13.496;2023-07-31T08:06:38;100196.97;;;20.61;68.81
26697;BME280;14312;52.614;13.496;2023-07-31T08:09:24;100202.38;;;20.61;68.70
26697;BME280;14312;52.614;13.496;2023-07-31T08:12:10;100201.75;;;20.64;68.26
26697;BME280;14312;52.614;13.496;2023-07-31T08:14:57;100203.34;;;20.65;68.32
26697;BME280;14312;52.614;13.496;2023-07-31T08:17:43;100195.53;;;20.64;68.23
26697;BME280;14312;52.614;13.496;2023-07-31T08:20:29;100199.69;;;20.70;68.66
26697;BME280;14312;52.614;13.496;2023-07-31T08:23:14;100190.44;;;20.71;68.65
26697;BME280;14312;52.614;13.496;2023-07-31T08:26:00;100201.91;;;20.68;68.26
26697;BME280;14312;52.614;13.496;2023-07-31T08:28:46;100193.94;;;20.63;68.08
26697;BME280;14312;52.614;13.496;2023-07-31T08:31:33;100190.13;;;20.55;68.13
26697;BME280;14312;52.614;13.496;2023-07-31T08:34:19;100182.47;;;20.49;68.13
26697;BME280;14312;52.614;13.496;2023-07-31T08:37:05;100183.88;;;20.46;68.49
26697;BME280;14312;52.614;13.496;2023-07-31T08:39:51;100178.63;;;20.41;68.63
26697;BME280;14312;52.614;13.496;2023-07-31T08:42:47;100185.16;;;20.40;68.91
26697;BME280;14312;52.614;13.496;2023-07-31T08:45:33;100184.19;;;20.36;68.95
26697;BME280;14312;52.614;13.496;2023-07-31T08:48:23;100181.50;;;20.36;69.13
26697;BME280;14312;52.614;13.496;2023-07-31T08:51:10;100178.56;;;20.32;69.08
26697;BME280;14312;52.614;13.496;2023-07-31T08:53:56;100186.41;;;20.34;69.57
26697;BME280;14312;52.614;13.496;2023-07-31T08:56:43;100191.22;;;20.37;69.74
26697;BME280;14312;52.614;13.496;2023-07-31T08:59:31;100188.97;;;20.39;69.74
26697;BME280;14312;52.614;13.496;2023-07-31T09:02:18;100188.84;;;20.44;69.92
26697;BME280;14312;52.614;13.496;2023-07-31T09:05:09;100183.25;;;20.49;69.92
26697;BME280;14312;52.614;13.496;2023-07-31T09:07:57;100183.59;;;20.56;70.12
26697;BME280;14312;52.614;13.496;2023-07-31T09:10:44;100189.31;;;20.63;69.86
26697;BME280;14312;52.614;13.496;2023-07-31T09:13:32;100178.81;;;20.70;69.98
26697;BME280;14312;52.614;13.496;2023-07-31T09:16:28;100180.13;;;20.82;69.70
26697;BME280;14312;52.614;13.496;2023-07-31T09:19:25;100178.84;;;20.88;69.86
26697;BME280;14312;52.614;13.496;2023-07-31T09:22:13;100178.97;;;20.91;69.25
26697;BME280;14312;52.614;13.496;2023-07-31T09:28:01;100175.63;;;21.03;69.00
26697;BME280;14312;52.614;13.496;2023-07-31T09:30:50;100171.16;;;21.07;69.22
26697;BME280;14312;52.614;13.496;2023-07-31T09:33:54;100176.88;;;21.14;68.98
26697;BME280;14312;52.614;13.496;2023-07-31T09:36:42;100170.88;;;21.17;69.10
26697;BME280;14312;52.614;13.496;2023-07-31T09:39:29;100173.09;;;21.24;68.83
26697;BME280;14312;52.614;13.496;2023-07-31T09:42:25;100174.34;;;21.26;68.35
26697;BME280;14312;52.614;13.496;2023-07-31T09:45:11;100174.03;;;21.19;67.81
26697;BME280;14312;52.614;13.496;2023-07-31T09:47:58;100177.50;;;21.11;68.12
26697;BME280;14312;52.614;13.496;2023-07-31T09:50:46;100176.25;;;21.00;68.21
26697;BME280;14312;52.614;13.496;2023-07-31T09:53:32;100172.75;;;20.91;68.54
26697;BME280;14312;52.614;13.496;2023-07-31T09:56:19;100176.25;;;20.83;68.87
26697;BME280;14312;52.614;13.496;2023-07-31T09:59:07;100174.38;;;20.75;69.03
26697;BME280;14312;52.614;13.496;2023-07-31T10:01:57;100166.38;;;20.69;69.59
26697;BME280;14312;52.614;13.496;2023-07-31T10:04:43;100164.66;;;20.65;69.80
26697;BME280;14312;52.614;13.496;2023-07-31T10:07:36;100172.59;;;20.61;69.96
26697;BME280;14312;52.614;13.496;2023-07-31T10:10:22;100153.63;;;20.61;70.37
26697;BME280;14312;52.614;13.496;2023-07-31T10:13:09;100157.47;;;20.60;70.77
26697;BME280;14312;52.614;13.496;2023-07-31T10:16:00;100160.84;;;20.66;71.08
26697;BME280;14312;52.614;13.496;2023-07-31T10:18:49;100155.41;;;20.75;71.24
26697;BME280;14312;52.614;13.496;2023-07-31T10:21:37;100150.28;;;20.90;71.09
26697;BME280;14312;52.614;13.496;2023-07-31T10:24:23;100148.38;;;20.99;70.73
26697;BME280;14312;52.614;13.496;2023-07-31T10:27:10;100151.69;;;21.05;70.19
26697;BME280;14312;52.614;13.496;2023-07-31T10:29:57;100142.28;;;21.11;70.04
26697;BME280;14312;52.614;13.496;2023-07-31T10:32:45;100148.19;;;21.13;69.94
26697;BME280;14312;52.614;13.496;2023-07-31T10:35:31;100144.38;;;21.14;69.50
26697;BME280;14312;52.614;13.496;2023-07-31T10:38:17;100139.91;;;21.18;69.42
26697;BME280;14312;52.614;13.496;2023-07-31T10:41:09;100141.50;;;21.19;69.28
26697;BME280;14312;52.614;13.496;2023-07-31T10:43:58;100149.47;;;21.16;69.16
26697;BME280;14312;52.614;13.496;2023-07-31T10:46:45;100149.97;;;21.09;69.44
26697;BME280;14312;52.614;13.496;2023-07-31T10:49:32;100139.28;;;21.04;69.19
26697;BME280;14312;52.614;13.496;2023-07-31T10:52:21;100132.13;;;20.99;69.52
26697;BME280;14312;52.614;13.496;2023-07-31T10:55:28;100135.13;;;20.98;70.06
26697;BME280;14312;52.614;13.496;2023-07-31T10:58:18;100127.50;;;21.00;70.17
26697;BME280;14312;52.614;13.496;2023-07-31T11:01:06;100128.44;;;21.04;70.77
26697;BME280;14312;52.614;13.496;2023-07-31T11:03:56;100115.88;;;21.17;71.34
26697;BME280;14312;52.614;13.496;2023-07-31T11:06:55;100103.03;;;21.34;71.39
26697;BME280;14312;52.614;13.496;2023-07-31T11:09:42;100098.97;;;21.58;71.76
26697;BME280;14312;52.614;13.496;2023-07-31T11:12:29;100103.94;;;21.85;71.17
26697;BME280;14312;52.614;13.496;2023-07-31T11:15:16;100110.34;;;22.10;70.73
26697;BME280;14312;52.614;13.496;2023-07-31T11:18:02;100110.38;;;22.31;69.45
26697;BME280;14312;52.614;13.496;2023-07-31T11:20:51;100105.91;;;22.47;68.67
26697;BME280;14312;52.614;13.496;2023-07-31T11:23:37;100104.41;;;22.58;68.32
26697;BME280;14312;52.614;13.496;2023-07-31T11:26:24;100100.13;;;22.69;67.72
26697;BME280;14312;52.614;13.496;2023-07-31T11:29:11;100103.72;;;22.82;67.20
26697;BME280;14312;52.614;13.496;2023-07-31T11:31:59;100100.25;;;22.93;66.86
26697;BME280;14312;52.614;13.496;2023-07-31T11:34:55;100083.50;;;23.03;66.68
26697;BME280;14312;52.614;13.496;2023-07-31T11:37:42;100098.94;;;23.12;66.14
26697;BME280;14312;52.614;13.496;2023-07-31T11:40:28;100105.75;;;23.18;65.57
26697;BME280;14312;52.614;13.496;2023-07-31T11:43:15;100080.72;;;23.24;64.92
26697;BME280;14312;52.614;13.496;2023-07-31T11:46:03;100086.75;;;23.30;64.71
26697;BME280;14312;52.614;13.496;2023-07-31T11:48:49;100088.44;;;23.34;64.90
26697;BME280;14312;52.614;13.496;2023-07-31T11:51:35;100077.34;;;23.39;64.17
26697;BME280;14312;52.614;13.496;2023-07-31T11:54:21;100091.72;;;23.40;63.91
26697;BME280;14312;52.614;13.496;2023-07-31T11:57:08;100092.06;;;23.38;63.70
26697;BME280;14312;52.614;13.496;2023-07-31T11:59:54;100081.53;;;23.37;63.24
26697;BME280;14312;52.614;13.496;2023-07-31T12:02:41;100076.09;;;23.37;62.85
26697;BME280;14312;52.614;13.496;2023-07-31T12:05:28;100075.66;;;23.35;62.07
26697;BME280;14312;52.614;13.496;2023-07-31T12:08:14;100072.91;;;23.35;62.13
26697;BME280;14312;52.614;13.496;2023-07-31T12:11:05;100071.34;;;23.34;62.12
26697;BME280;14312;52.614;13.496;2023-07-31T12:13:51;100073.59;;;23.32;62.04
26697;BME280;14312;52.614;13.496;2023-07-31T12:16:37;100078.59;;;23.30;62.09
26697;BME280;14312;52.614;13.496;2023-07-31T12:19:25;100074.72;;;23.31;61.42
26697;BME280;14312;52.614;13.496;2023-07-31T12:22:15;100077.66;;;23.26;61.39
26697;BME280;14312;52.614;13.496;2023-07-31T12:25:01;100061.59;;;23.21;61.40
26697;BME280;14312;52.614;13.496;2023-07-31T12:27:50;100065.66;;;23.15;61.59
26697;BME280;14312;52.614;13.496;2023-07-31T12:30:37;100069.59;;;23.05;62.22
26697;BME280;14312;52.614;13.496;2023-07-31T12:33:23;100058.00;;;22.96;62.59
26697;BME280;14312;52.614;13.496;2023-07-31T12:36:15;100063.34;;;22.92;63.08
26697;BME280;14312;52.614;13.496;2023-07-31T12:39:01;100056.53;;;22.86;63.38
26697;BME280;14312;52.614;13.496;2023-07-31T12:41:47;100046.31;;;22.83;63.37
26697;BME280;14312;52.614;13.496;2023-07-31T12:44:33;100054.16;;;22.85;63.61
26697;BME280;14312;52.614;13.496;2023-07-31T12:47:19;100053.81;;;22.86;63.08
26697;BME280;14312;52.614;13.496;2023-07-31T12:50:06;100057.78;;;22.89;62.99
26697;BME280;14312;52.614;13.496;2023-07-31T12:52:54;100039.53;;;22.89;62.48
26697;BME280;14312;52.614;13.496;2023-07-31T12:55:41;100031.84;;;22.91;62.20
26697;BME280;14312;52.614;13.496;2023-07-31T12:58:27;100015.66;;;22.95;62.32
26697;BME280;14312;52.614;13.496;2023-07-31T13:01:13;100028.72;;;23.01;62.40
26697;BME280;14312;52.614;13.496;2023-07-31T13:03:59;100037.53;;;23.11;62.20
26697;BME280;14312;52.614;13.496;2023-07-31T13:06:45;100033.47;;;23.17;61.87
26697;BME280;14312;52.614;13.496;2023-07-31T13:09:31;100024.97;;;23.18;61.00
26697;BME280;14312;52.614;13.496;2023-07-31T13:12:17;100021.03;;;23.16;61.58
26697;BME280;14312;52.614;13.496;2023-07-31T13:15:04;100026.00;;;23.14;61.84
26697;BME280;14312;52.614;13.496;2023-07-31T13:17:51;100017.63;;;23.07;62.25
26697;BME280;14312;52.614;13.496;2023-07-31T13:20:36;100022.81;;;22.99;62.46
26697;BME280;14312;52.614;13.496;2023-07-31T13:23:22;100041.59;;;22.92;62.43
26697;BME280;14312;52.614;13.496;2023-07-31T13:26:08;100035.78;;;22.82;62.84
26697;BME280;14312;52.614;13.496;2023-07-31T13:28:54;100021.16;;;22.74;63.13
26697;BME280;14312;52.614;13.496;2023-07-31T13:31:40;100022.47;;;22.68;63.75
26697;BME280;14312;52.614;13.496;2023-07-31T13:34:26;100020.88;;;22.67;64.11
26697;BME280;14312;52.614;13.496;2023-07-31T13:37:11;100015.91;;;22.69;64.70
26697;BME280;14312;52.614;13.496;2023-07-31T13:39:57;99997.97;;;22.77;64.88
26697;BME280;14312;52.614;13.496;2023-07-31T13:42:43;100005.34;;;22.88;64.81
26697;BME280;14312;52.614;13.496;2023-07-31T13:45:29;100001.72;;;22.96;64.77
26697;BME280;14312;52.614;13.496;2023-07-31T13:48:15;99984.53;;;23.04;64.92
26697;BME280;14312;52.614;13.496;2023-07-31T13:51:01;99981.38;;;23.15;64.88
26697;BME280;14312;52.614;13.496;2023-07-31T13:53:47;99979.31;;;23.24;65.08
26697;BME280;14312;52.614;13.496;2023-07-31T13:56:33;99975.03;;;23.35;65.02
26697;BME280;14312;52.614;13.496;2023-07-31T13:59:19;99976.94;;;23.47;64.73
26697;BME280;14312;52.614;13.496;2023-07-31T14:02:06;99973.66;;;23.65;63.64
26697;BME280;14312;52.614;13.496;2023-07-31T14:04:52;99970.91;;;23.77;63.17
26697;BME280;14312;52.614;13.496;2023-07-31T14:07:37;99985.19;;;23.87;62.71
26697;BME280;14312;52.614;13.496;2023-07-31T14:10:23;99968.34;;;23.97;61.50
26697;BME280;14312;52.614;13.496;2023-07-31T14:13:09;99960.84;;;24.06;60.34
26697;BME280;14312;52.614;13.496;2023-07-31T14:15:55;99971.00;;;24.09;60.34
26697;BME280;14312;52.614;13.496;2023-07-31T14:18:41;99961.72;;;24.10;59.83
26697;BME280;14312;52.614;13.496;2023-07-31T14:21:27;99969.19;;;24.13;59.90
26697;BME280;14312;52.614;13.496;2023-07-31T14:24:13;99965.34;;;24.14;59.15
26697;BME280;14312;52.614;13.496;2023-07-31T14:26:59;99971.22;;;24.16;59.03
26697;BME280;14312;52.614;13.496;2023-07-31T14:29:45;99961.03;;;24.13;59.21